Terminal Aerodrome Forecast
Issued by NWS Cleveland, OH

Home | Current Version | Previous Version | Graphics & Text | Print | Product List | Glossary Off
Versions: 1 2 3 4 5 6 7 8 9 10 11 12 13 14 15 16 17 18

000
FTUS41 KCLE 241723
TAFCAK
TAF
KCAK 241723Z 2418/2518 20012KT P6SM SKC
     FM250600 21013KT P6SM BKN200
     FM251300 23010KT P6SM -SHRA OVC030
     FM251500 25010KT P6SM VCSH OVC015=

USA.gov is the U.S. government's official web portal to all federal, state and local government web resources and services.